createdAt,value
2023-02-12T00:00:10.448Z,39.67
2023-02-12T00:02:46.874Z,44.03
2023-02-12T00:05:17.781Z,45.03
2023-02-12T00:07:50.723Z,39.45
2023-02-12T00:10:21.142Z,39.30
2023-02-12T00:12:51.394Z,35.60
2023-02-12T00:15:21.752Z,34.55
2023-02-12T00:17:51.951Z,35.20
2023-02-12T00:20:22.208Z,34.40
2023-02-12T00:22:54.697Z,30.27
2023-02-12T00:25:24.618Z,33.58
2023-02-12T00:27:54.787Z,31.05
2023-02-12T00:30:25.021Z,32.78
2023-02-12T00:32:57.938Z,30.95
2023-02-12T00:35:28.215Z,37.33
2023-02-12T00:38:01.694Z,34.60
2023-02-12T00:40:31.937Z,47.35
2023-02-12T00:43:02.145Z,37.03
2023-02-12T00:45:32.410Z,31.77
2023-02-12T00:48:02.736Z,33.50
2023-02-12T00:50:33.009Z,27.83
2023-02-12T00:53:06.521Z,29.30
2023-02-12T00:55:36.906Z,33.10
2023-02-12T00:58:07.275Z,29.27
2023-02-12T01:00:37.558Z,35.70
2023-02-12T01:03:08.304Z,32.55
2023-02-12T01:05:38.702Z,35.17
2023-02-12T01:08:11.401Z,35.58
2023-02-12T01:10:41.696Z,33.00
2023-02-12T01:13:15.910Z,38.03
2023-02-12T01:15:46.477Z,35.63
2023-02-12T01:18:16.900Z,39.30
2023-02-12T01:20:47.189Z,34.17
2023-02-12T01:23:20.265Z,37.58
2023-02-12T01:25:50.534Z,35.53
2023-02-12T01:28:20.878Z,38.75
2023-02-12T01:30:50.840Z,39.30
2023-02-12T01:33:21.087Z,38.42
2023-02-12T01:35:50.960Z,41.88
2023-02-12T01:38:23.742Z,41.78
2023-02-12T01:40:53.643Z,42.28
2023-02-12T01:43:23.531Z,50.35
2023-02-12T01:45:58.013Z,45.10
2023-02-12T01:48:30.730Z,38.42
2023-02-12T01:51:02.530Z,42.05
2023-02-12T01:53:39.745Z,45.22
2023-02-12T01:56:10.764Z,45.20
2023-02-12T01:58:43.541Z,41.47
2023-02-12T02:01:18.330Z,45.22
2023-02-12T02:03:50.033Z,43.80
2023-02-12T02:06:25.884Z,40.75
2023-02-12T02:08:59.581Z,45.42
2023-02-12T02:11:42.150Z,41.92
2023-02-12T02:14:24.594Z,38.17
2023-02-12T02:17:04.031Z,44.72
2023-02-12T02:19:48.795Z,48.33
2023-02-12T02:25:36.834Z,37.28
2023-02-12T02:28:50.260Z,42.60
2023-02-12T02:31:29.309Z,41.03
2023-02-12T02:34:05.245Z,40.45
2023-02-12T02:36:54.090Z,42.88
2023-02-12T02:39:35.948Z,39.83
2023-02-12T02:42:13.034Z,41.15
2023-02-12T02:44:58.270Z,46.83
2023-02-12T02:47:36.192Z,40.53
2023-02-12T02:50:11.123Z,46.60
2023-02-12T02:52:45.941Z,43.33
2023-02-12T02:55:20.850Z,46.38
2023-02-12T02:57:56.149Z,46.72
2023-02-12T03:00:34.595Z,43.28
2023-02-12T03:03:14.725Z,40.97
2023-02-12T03:05:47.728Z,44.80
2023-02-12T03:08:24.412Z,42.53
2023-02-12T03:10:58.213Z,35.30
2023-02-12T03:13:31.487Z,31.88
2023-02-12T03:16:05.977Z,34.90
2023-02-12T03:21:15.865Z,38.63
2023-02-12T03:23:52.666Z,37.95
2023-02-12T03:26:27.845Z,41.90
2023-02-12T03:28:58.214Z,37.03
2023-02-12T03:31:40.290Z,37.90
2023-02-12T03:34:21.306Z,38.85
2023-02-12T03:36:57.776Z,35.85
2023-02-12T03:39:33.844Z,41.58
2023-02-12T03:42:08.572Z,45.75
2023-02-12T03:44:49.604Z,43.97
2023-02-12T03:47:28.605Z,47.10
2023-02-12T03:50:06.133Z,46.92
2023-02-12T03:52:36.871Z,48.35
2023-02-12T03:55:08.548Z,43.08
2023-02-12T03:57:43.869Z,40.83
2023-02-12T04:00:17.447Z,38.05
2023-02-12T04:02:50.751Z,46.30
2023-02-12T04:05:26.084Z,46.50
2023-02-12T04:08:00.676Z,39.05
2023-02-12T04:10:38.534Z,44.40
2023-02-12T04:13:19.838Z,46.20
2023-02-12T04:16:05.288Z,47.40
2023-02-12T04:18:41.940Z,45.70
2023-02-12T04:21:20.592Z,43.85
2023-02-12T04:23:58.370Z,48.50
2023-02-12T04:26:39.354Z,42.13
2023-02-12T04:29:20.561Z,44.72
2023-02-12T04:31:57.117Z,40.90
2023-02-12T04:34:31.608Z,52.47
2023-02-12T04:39:40.394Z,40.95
2023-02-12T04:42:10.589Z,43.75
2023-02-12T04:44:45.667Z,45.70
2023-02-12T04:47:16.265Z,46.80
2023-02-12T04:49:46.857Z,40.15
2023-02-12T04:52:19.410Z,44.03
2023-02-12T04:54:49.542Z,42.92
2023-02-12T04:57:19.878Z,46.88
2023-02-12T04:59:50.138Z,46.13
2023-02-12T05:02:20.602Z,50.00
2023-02-12T05:04:52.320Z,50.40
2023-02-12T05:07:24.968Z,47.97
2023-02-12T05:09:55.360Z,53.83
2023-02-12T05:12:25.705Z,49.47
2023-02-12T05:14:55.941Z,49.60
2023-02-12T05:17:26.817Z,46.42
2023-02-12T05:19:57.223Z,46.42
2023-02-12T05:22:30.018Z,48.65
2023-02-12T05:25:00.487Z,50.20
2023-02-12T05:27:30.768Z,48.92
2023-02-12T05:30:01.064Z,48.72
2023-02-12T05:32:38.305Z,44.15
2023-02-12T05:35:10.097Z,51.38
2023-02-12T05:37:42.723Z,47.55
2023-02-12T05:40:14.275Z,41.58
2023-02-12T05:42:44.254Z,45.25
2023-02-12T05:45:14.183Z,44.75
2023-02-12T05:47:44.088Z,43.78
2023-02-12T05:50:14.442Z,51.85
2023-02-12T05:52:46.929Z,50.97
2023-02-12T05:55:17.005Z,46.97
2023-02-12T05:57:46.934Z,50.95
2023-02-12T06:00:18.211Z,63.08
2023-02-12T06:02:48.381Z,53.67
2023-02-12T06:05:18.471Z,53.80
2023-02-12T06:07:51.019Z,66.38
2023-02-12T06:10:21.433Z,55.33
2023-02-12T06:12:55.946Z,52.15
2023-02-12T06:15:25.964Z,37.38
2023-02-12T06:17:55.867Z,44.60
2023-02-12T06:20:25.890Z,41.00
2023-02-12T06:22:58.493Z,47.33
2023-02-12T06:25:28.624Z,50.70
2023-02-12T06:27:58.666Z,58.88
2023-02-12T06:30:28.660Z,55.83
2023-02-12T06:32:58.615Z,52.33
2023-02-12T06:35:28.564Z,49.25
2023-02-12T06:38:01.209Z,57.65
2023-02-12T06:40:31.174Z,60.13
2023-02-12T06:43:01.189Z,65.18
2023-02-12T06:45:31.050Z,56.50
2023-02-12T06:48:01.179Z,66.28
2023-02-12T06:50:31.713Z,59.58
2023-02-12T06:53:04.225Z,77.20
2023-02-12T06:55:34.324Z,72.10
2023-02-12T06:58:04.240Z,76.22
2023-02-12T07:00:34.173Z,78.93
2023-02-12T07:03:04.157Z,75.75
2023-02-12T07:05:37.921Z,76.00
2023-02-12T07:08:10.505Z,73.20
2023-02-12T07:10:40.437Z,82.03
2023-02-12T07:13:10.354Z,83.78
2023-02-12T07:15:42.404Z,88.18
2023-02-12T07:18:12.352Z,93.68
2023-02-12T07:20:42.299Z,88.50
2023-02-12T07:23:16.937Z,78.60
2023-02-12T07:25:46.850Z,81.00
2023-02-12T07:28:16.866Z,70.32
2023-02-12T07:30:46.910Z,78.10
2023-02-12T07:33:17.000Z,71.95
2023-02-12T07:35:46.985Z,74.13
2023-02-12T07:38:19.504Z,61.35
2023-02-12T07:40:49.512Z,80.45
2023-02-12T07:43:19.564Z,64.55
2023-02-12T07:45:49.514Z,68.90
2023-02-12T07:48:19.467Z,62.80
2023-02-12T07:50:49.407Z,77.55
2023-02-12T07:53:21.887Z,75.47
2023-02-12T07:55:51.808Z,77.88
2023-02-12T07:58:21.752Z,75.32
2023-02-12T08:00:52.782Z,71.50
2023-02-12T08:03:22.668Z,80.88
2023-02-12T08:05:52.572Z,79.18
2023-02-12T08:08:25.179Z,69.18
2023-02-12T08:10:55.142Z,73.00
2023-02-12T08:13:24.997Z,75.30
2023-02-12T08:16:03.033Z,79.10
2023-02-12T08:18:34.338Z,69.95
2023-02-12T08:21:06.115Z,74.68
2023-02-12T08:23:40.004Z,81.30
2023-02-12T08:26:14.711Z,75.50
2023-02-12T08:28:46.697Z,81.03
2023-02-12T08:31:20.144Z,74.13
2023-02-12T08:33:51.532Z,72.97
2023-02-12T08:36:26.947Z,79.93
2023-02-12T08:39:01.648Z,75.28
2023-02-12T08:41:33.032Z,79.90
2023-02-12T08:44:04.847Z,73.55
2023-02-12T08:46:37.174Z,75.25
2023-02-12T08:49:10.205Z,80.13
2023-02-12T08:51:43.181Z,78.10
2023-02-12T08:54:17.557Z,75.32
2023-02-12T08:56:48.106Z,77.82
2023-02-12T08:59:18.998Z,75.10
2023-02-12T09:01:48.987Z,63.70
2023-02-12T09:04:22.838Z,59.83
2023-02-12T09:06:53.857Z,64.63
2023-02-12T09:09:26.590Z,60.63
2023-02-12T09:11:56.539Z,62.92
2023-02-12T09:14:26.471Z,65.32
2023-02-12T09:16:58.352Z,64.50
2023-02-12T09:19:28.533Z,64.68
2023-02-12T09:21:59.333Z,65.70
2023-02-12T09:24:32.407Z,64.03
2023-02-12T09:27:02.272Z,66.38
2023-02-12T09:29:32.230Z,66.60
2023-02-12T09:32:04.887Z,71.40
2023-02-12T09:34:37.906Z,78.10
2023-02-12T09:37:07.815Z,70.25
2023-02-12T09:39:40.763Z,78.47
2023-02-12T09:42:32.372Z,60.60
2023-02-12T09:45:09.890Z,60.38
2023-02-12T09:47:51.422Z,65.47
2023-02-12T09:50:34.227Z,57.00
2023-02-12T09:53:05.046Z,51.15
2023-02-12T09:55:38.688Z,49.38
2023-02-12T09:58:17.104Z,49.58
2023-02-12T10:00:46.964Z,42.45
2023-02-12T10:03:19.983Z,49.65
2023-02-12T10:05:52.890Z,41.80
2023-02-12T10:08:44.330Z,49.30
2023-02-12T10:11:46.415Z,41.70
2023-02-12T10:14:38.487Z,47.55
2023-02-12T10:17:15.920Z,42.20
2023-02-12T10:20:07.398Z,42.97
2023-02-12T10:22:56.514Z,47.60
2023-02-12T10:25:32.118Z,37.58
2023-02-12T10:28:12.168Z,47.42
2023-02-12T10:30:48.059Z,49.42
2023-02-12T10:33:22.326Z,43.40
2023-02-12T10:35:56.182Z,44.67
2023-02-12T10:38:30.842Z,42.22
2023-02-12T10:43:35.099Z,36.35
2023-02-12T10:46:05.351Z,36.00
2023-02-12T10:48:38.183Z,38.58
2023-02-12T10:51:26.407Z,42.17
2023-02-12T10:53:56.318Z,42.92
2023-02-12T10:56:29.409Z,32.85
2023-02-12T10:59:03.068Z,39.42
2023-02-12T11:01:36.685Z,33.40
2023-02-12T11:04:23.978Z,32.03
2023-02-12T11:07:03.592Z,35.90
2023-02-12T11:09:40.781Z,32.20
2023-02-12T11:12:35.844Z,31.42
2023-02-12T11:17:43.489Z,31.85
2023-02-12T11:20:25.939Z,34.15
2023-02-12T11:22:58.568Z,34.28
2023-02-12T11:25:31.162Z,28.55
2023-02-12T11:28:08.094Z,28.23
2023-02-12T11:30:52.392Z,28.80
2023-02-12T11:33:29.110Z,27.88
2023-02-12T11:36:02.706Z,31.88
2023-02-12T11:38:36.837Z,34.88
2023-02-12T11:41:24.005Z,33.83
2023-02-12T11:43:54.427Z,27.65
2023-02-12T11:46:29.956Z,35.50
2023-02-12T11:49:01.933Z,27.40
2023-02-12T11:51:34.350Z,30.05
2023-02-12T11:54:06.551Z,37.30
2023-02-12T11:56:48.599Z,34.53
2023-02-12T11:59:33.777Z,35.53
2023-02-12T12:02:17.232Z,28.77
2023-02-12T12:04:52.453Z,31.25
2023-02-12T12:07:27.394Z,33.45
2023-02-12T12:10:01.761Z,29.90
2023-02-12T12:18:11.444Z,26.75
2023-02-12T12:20:48.378Z,32.67
2023-02-12T12:23:23.224Z,29.80
2023-02-12T12:25:57.225Z,28.17
2023-02-12T12:28:36.570Z,29.45
2023-02-12T12:31:12.567Z,25.25
2023-02-12T12:33:47.944Z,30.67
2023-02-12T12:36:53.404Z,29.25
2023-02-12T12:39:32.006Z,27.02
2023-02-12T12:42:40.669Z,32.75
2023-02-12T12:45:27.889Z,33.00
2023-02-12T12:48:12.897Z,31.75
2023-02-12T12:51:02.609Z,29.92
2023-02-12T12:53:48.465Z,25.85
2023-02-12T12:56:37.944Z,26.63
2023-02-12T12:59:28.629Z,25.73
2023-02-12T13:02:21.975Z,32.28
2023-02-12T13:05:20.883Z,32.17
2023-02-12T13:08:01.676Z,34.50
2023-02-12T13:10:36.343Z,31.23
2023-02-12T13:13:12.101Z,31.67
2023-02-12T13:15:47.637Z,29.58
2023-02-12T13:18:22.394Z,32.55
2023-02-12T13:21:00.364Z,29.92
2023-02-12T13:23:38.691Z,29.00
2023-02-12T13:26:13.025Z,33.08
2023-02-12T13:31:33.803Z,32.95
2023-02-12T13:34:07.634Z,26.23
2023-02-12T13:36:39.759Z,30.40
2023-02-12T13:39:18.731Z,31.83
2023-02-12T13:41:51.621Z,29.50
2023-02-12T13:44:31.413Z,30.38
2023-02-12T13:47:07.289Z,30.80
2023-02-12T13:49:43.149Z,29.05
2023-02-12T13:52:16.442Z,30.25
2023-02-12T13:55:02.909Z,26.77
2023-02-12T13:57:33.133Z,22.60
2023-02-12T14:00:08.346Z,30.90
2023-02-12T14:02:50.334Z,27.90
2023-02-12T14:05:31.904Z,28.05
2023-02-12T14:08:05.788Z,24.83
2023-02-12T14:10:40.059Z,26.23
2023-02-12T14:13:15.616Z,26.95
2023-02-12T14:15:47.265Z,25.17
2023-02-12T14:18:31.770Z,27.90
2023-02-12T14:21:17.258Z,23.08
2023-02-12T14:23:50.861Z,24.08
2023-02-12T14:26:26.756Z,23.90
2023-02-12T14:28:58.380Z,21.73
2023-02-12T14:31:46.560Z,23.52
2023-02-12T14:34:31.921Z,20.75
2023-02-12T14:37:15.759Z,22.33
2023-02-12T14:39:46.063Z,21.73
2023-02-12T14:42:31.331Z,25.27
2023-02-12T14:45:04.174Z,20.05
2023-02-12T14:47:52.824Z,22.98
2023-02-12T14:50:24.031Z,24.45
2023-02-12T14:52:56.741Z,24.05
2023-02-12T14:55:30.638Z,26.83
2023-02-12T14:58:04.144Z,25.50
2023-02-12T15:00:39.136Z,33.33
2023-02-12T15:03:22.436Z,26.13
2023-02-12T15:05:58.982Z,26.73
2023-02-12T15:08:38.506Z,33.90
2023-02-12T15:11:17.463Z,35.42
2023-02-12T15:13:51.713Z,32.75
2023-02-12T15:16:32.544Z,30.92
2023-02-12T15:19:08.660Z,33.72
2023-02-12T15:21:39.301Z,28.58
2023-02-12T15:24:10.536Z,31.45
2023-02-12T15:26:43.526Z,29.42
2023-02-12T15:29:22.526Z,33.03
2023-02-12T15:32:00.304Z,32.55
2023-02-12T15:34:32.217Z,29.58
2023-02-12T15:37:03.672Z,33.22
2023-02-12T15:39:43.682Z,30.13
2023-02-12T15:42:29.125Z,37.78
2023-02-12T15:45:05.871Z,31.77
2023-02-12T15:47:38.770Z,31.23
2023-02-12T15:50:10.216Z,26.55
2023-02-12T15:52:42.066Z,33.97
2023-02-12T15:55:18.228Z,34.97
2023-02-12T15:57:52.373Z,35.65
2023-02-12T16:00:32.002Z,31.67
2023-02-12T16:03:04.878Z,33.10
2023-02-12T16:05:36.095Z,29.48
2023-02-12T16:08:06.638Z,29.10
2023-02-12T16:10:37.128Z,33.13
2023-02-12T16:13:07.527Z,33.97
2023-02-12T16:15:40.324Z,29.80
2023-02-12T16:18:26.461Z,34.42
2023-02-12T16:21:05.696Z,35.20
2023-02-12T16:23:36.147Z,33.72
2023-02-12T16:26:06.678Z,31.02
2023-02-12T16:28:36.961Z,34.15
2023-02-12T16:31:11.720Z,32.88
2023-02-12T16:33:49.522Z,30.90
2023-02-12T16:36:30.780Z,32.47
2023-02-12T16:39:05.588Z,30.88
2023-02-12T16:41:41.031Z,32.60
2023-02-12T16:44:26.304Z,37.05
2023-02-12T16:46:57.690Z,40.20
2023-02-12T16:49:30.778Z,32.42
2023-02-12T16:52:23.142Z,32.13
2023-02-12T16:54:53.477Z,32.17
2023-02-12T16:57:23.665Z,32.35
2023-02-12T16:59:53.935Z,35.83
2023-02-12T17:02:24.192Z,38.08
2023-02-12T17:05:00.896Z,37.85
2023-02-12T17:07:31.236Z,31.83
2023-02-12T17:10:01.483Z,35.90
2023-02-12T17:12:31.813Z,37.92
2023-02-12T17:15:02.118Z,35.22
2023-02-12T17:17:32.737Z,33.38
2023-02-12T17:20:05.556Z,33.20
2023-02-12T17:22:36.547Z,40.83
2023-02-12T17:25:06.998Z,39.13
2023-02-12T17:27:38.216Z,35.88
2023-02-12T17:30:09.212Z,35.95
2023-02-12T17:32:39.471Z,41.72
2023-02-12T17:35:12.606Z,34.90
2023-02-12T17:37:42.617Z,46.95
2023-02-12T17:40:14.003Z,36.58
2023-02-12T17:42:44.274Z,36.90
2023-02-12T17:45:14.160Z,37.53
2023-02-12T17:47:44.083Z,30.55
2023-02-12T17:50:18.192Z,37.17
2023-02-12T17:52:48.653Z,39.58
2023-02-12T17:55:18.797Z,39.50
2023-02-12T17:57:49.045Z,35.47
2023-02-12T18:00:20.068Z,39.58
2023-02-12T18:02:50.319Z,41.13
2023-02-12T18:05:22.895Z,36.70
2023-02-12T18:07:53.067Z,38.13
2023-02-12T18:10:23.307Z,33.83
2023-02-12T18:12:53.488Z,39.00
2023-02-12T18:15:23.841Z,37.55
2023-02-12T18:17:54.159Z,36.30
2023-02-12T18:20:26.877Z,41.80
2023-02-12T18:22:57.790Z,37.90
2023-02-12T18:25:28.109Z,35.28
2023-02-12T18:28:01.737Z,36.10
2023-02-12T18:30:32.144Z,35.33
2023-02-12T18:33:02.445Z,33.75
2023-02-12T18:35:36.896Z,38.47
2023-02-12T18:40:37.264Z,37.22
2023-02-12T18:43:07.522Z,42.55
2023-02-12T18:45:37.693Z,41.08
2023-02-12T18:48:09.434Z,42.38
2023-02-12T18:50:42.556Z,44.63
2023-02-12T18:53:13.081Z,53.63
2023-02-12T18:55:43.040Z,39.92
2023-02-12T18:58:12.983Z,46.97
2023-02-12T19:00:43.727Z,47.15
2023-02-12T19:03:14.378Z,41.47
2023-02-12T19:05:47.222Z,37.95
2023-02-12T19:08:17.840Z,42.55
2023-02-12T19:10:49.468Z,39.70
2023-02-12T19:13:19.448Z,37.75
2023-02-12T19:15:49.690Z,40.28
2023-02-12T19:18:19.998Z,41.38
2023-02-12T19:20:52.728Z,41.55
2023-02-12T19:23:22.908Z,38.70
2023-02-12T19:25:53.200Z,43.38
2023-02-12T19:28:23.218Z,40.40
2023-02-12T19:30:53.541Z,38.28
2023-02-12T19:33:23.802Z,37.50
2023-02-12T19:35:56.361Z,45.83
2023-02-12T19:38:26.259Z,41.47
2023-02-12T19:41:04.964Z,51.97
2023-02-12T19:43:35.270Z,44.30
2023-02-12T19:46:05.574Z,38.65
2023-02-12T19:48:36.009Z,35.85
2023-02-12T19:51:10.151Z,39.22
2023-02-12T19:53:40.223Z,40.75
2023-02-12T19:56:10.847Z,37.95
2023-02-12T19:58:41.597Z,39.70
2023-02-12T20:01:12.769Z,37.85
2023-02-12T20:03:43.229Z,38.22
2023-02-12T20:06:17.839Z,35.20
2023-02-12T20:08:47.845Z,34.40
2023-02-12T20:11:20.300Z,42.08
2023-02-12T20:13:50.584Z,45.28
2023-02-12T20:16:22.951Z,34.17
2023-02-12T20:18:56.394Z,29.98
2023-02-12T20:21:31.189Z,32.73
2023-02-12T20:24:02.119Z,31.60
2023-02-12T20:26:33.219Z,28.25
2023-02-12T20:29:05.256Z,26.77
2023-02-12T20:31:39.888Z,22.27
2023-02-12T20:36:45.790Z,23.98
2023-02-12T20:39:17.829Z,25.75
2023-02-12T20:41:48.211Z,21.90
2023-02-12T20:44:21.068Z,22.13
2023-02-12T20:46:56.485Z,25.65
2023-02-12T20:49:27.782Z,21.02
2023-02-12T20:52:00.336Z,22.65
2023-02-12T20:54:30.569Z,22.95
2023-02-12T20:57:06.338Z,23.52
2023-02-12T20:59:36.297Z,21.27
2023-02-12T21:02:06.526Z,19.98
2023-02-12T21:04:36.568Z,21.88
2023-02-12T21:07:09.035Z,21.48
2023-02-12T21:09:38.919Z,18.27
2023-02-12T21:12:09.197Z,20.23
2023-02-12T21:14:39.372Z,15.85
2023-02-12T21:17:09.246Z,17.60
2023-02-12T21:19:39.138Z,15.90
2023-02-12T21:22:11.681Z,20.27
2023-02-12T21:24:41.586Z,16.67
2023-02-12T21:27:11.899Z,14.93
2023-02-12T21:29:41.772Z,13.30
2023-02-12T21:32:11.825Z,10.45
2023-02-12T21:34:42.296Z,10.65
2023-02-12T21:37:15.135Z,13.95
2023-02-12T21:39:45.300Z,11.27
2023-02-12T21:42:15.483Z,13.95
2023-02-12T21:44:45.798Z,13.93
2023-02-12T21:47:15.700Z,11.32
2023-02-12T21:49:46.012Z,11.90
2023-02-12T21:52:18.640Z,14.65
2023-02-12T21:54:48.847Z,13.55
2023-02-12T21:57:21.892Z,12.75
2023-02-12T21:59:52.108Z,14.25
2023-02-12T22:02:22.395Z,12.52
2023-02-12T22:04:52.621Z,9.20
2023-02-12T22:07:25.170Z,11.60
2023-02-12T22:09:58.430Z,11.50
2023-02-12T22:12:32.259Z,10.88
2023-02-12T22:15:02.250Z,9.77
2023-02-12T22:17:34.925Z,10.65
2023-02-12T22:20:05.073Z,11.63
2023-02-12T22:22:37.676Z,9.82
2023-02-12T22:25:08.542Z,11.75
2023-02-12T22:27:38.616Z,9.95
2023-02-12T22:30:10.153Z,8.00
2023-02-12T22:32:40.123Z,10.25
2023-02-12T22:35:10.952Z,10.60
2023-02-12T22:37:45.054Z,10.88
2023-02-12T22:40:16.527Z,10.88
2023-02-12T22:42:46.691Z,9.60
2023-02-12T22:45:16.737Z,10.55
2023-02-12T22:47:46.673Z,8.32
2023-02-12T22:50:16.631Z,8.73
2023-02-12T22:52:49.212Z,12.50
2023-02-12T22:55:19.319Z,9.85
2023-02-12T22:57:49.472Z,9.82
2023-02-12T23:00:21.197Z,9.50
2023-02-12T23:02:51.184Z,9.88
2023-02-12T23:05:21.398Z,10.18
2023-02-12T23:07:54.010Z,11.25
2023-02-12T23:10:23.973Z,11.50
2023-02-12T23:12:53.907Z,9.13
2023-02-12T23:15:24.129Z,8.85
2023-02-12T23:17:54.237Z,13.55
2023-02-12T23:20:24.135Z,11.75
2023-02-12T23:22:56.589Z,12.80
2023-02-12T23:25:26.503Z,12.32
2023-02-12T23:27:56.364Z,14.03
2023-02-12T23:30:26.553Z,15.87
2023-02-12T23:32:56.721Z,14.90
2023-02-12T23:35:26.652Z,13.60
2023-02-12T23:37:59.199Z,16.15
2023-02-12T23:40:29.149Z,14.50
2023-02-12T23:42:59.090Z,18.15
2023-02-12T23:45:29.149Z,15.07
2023-02-12T23:47:59.053Z,13.95
2023-02-12T23:50:29.569Z,14.75
2023-02-12T23:53:02.538Z,14.20
2023-02-12T23:55:32.493Z,12.75
2023-02-12T23:58:04.483Z,16.47
